Pelagos — SZSW — position and weather

sailwx.info

Track history (hours):
 
Tides and Currents Weather Stations Pressure Air Temp Water Temp Dewpoint Dewpoint Depression Visibility Wind Speed Wind Dir Waves Ship Positions

Pelagos

Last reported at 2017-Aug-20 06:22 UTC. Time now 2017-Aug-21 12:02 UTC.
Position N 55°49' E 016°57'.

Length 249 m; draft 6.5 m.

Type: Ship. MMSI: 240335000.

Date/timePositionNaut miles runAvg speedWind from/ knotsBaromVisibWave heightAir tempDewpointWater temp
2017-Aug-20 06:22N 55°49' E 016°57'3 8.3
2017-Aug-20 06:00N 55°48' E 016°52'4 8.0
2017-Aug-20 05:30N 55°47' E 016°45'4 7.9
2017-Aug-20 05:00N 55°46' E 016°38'4 8.0
2017-Aug-20 04:30N 55°45' E 016°32'4 8.1
2017-Aug-20 04:00N 55°44' E 016°25'4 8.2
2017-Aug-20 03:30N 55°43' E 016°17'4 8.3
2017-Aug-20 03:00N 55°42' E 016°10'4 8.4
2017-Aug-20 02:30N 55°41' E 016°03'4 8.4
2017-Aug-20 02:00N 55°41' E 015°56'4 8.4
2017-Aug-20 01:30N 55°39' E 015°49'4 8.4
2017-Aug-20 01:00N 55°38' E 015°42'4 8.5
2017-Aug-20 00:30N 55°37' E 015°34'4 8.5
2017-Aug-20 00:00N 55°36' E 015°27'4 8.6
2017-Aug-19 23:30N 55°34' E 015°20'4 8.6
2017-Aug-19 23:00N 55°32' E 015°13'4 8.5
2017-Aug-19 22:30N 55°31' E 015°06'4 8.4
2017-Aug-19 22:00N 55°29' E 014°60'4 8.3
2017-Aug-19 21:30N 55°27' E 014°53'4 8.4
2017-Aug-19 21:00N 55°26' E 014°46'4 8.5
2017-Aug-19 20:30N 55°24' E 014°39'4 8.3
2017-Aug-19 20:00N 55°21' E 014°35'4 8.3
2017-Aug-19 19:30N 55°17' E 014°30'4 8.4
2017-Aug-19 19:00N 55°14' E 014°25'4 8.4
2017-Aug-19 18:30N 55°11' E 014°20'4 8.2
2017-Aug-19 18:00N 55°10' E 014°13'4 8.7
2017-Aug-19 17:30N 55°10' E 014°06'4 8.6
2017-Aug-19 17:00N 55°10' E 013°58'4 8.6
2017-Aug-19 16:30N 55°10' E 013°51'15 8.5
2017-Aug-19 14:44N 55°12' E 013°24'8 8.2
2017-Aug-19 13:47N 55°13' E 013°11'2 8.2
2017-Aug-19 13:30N 55°14' E 013°07'4 8.5
2017-Aug-19 13:00N 55°14' E 012°59'4 8.4
2017-Aug-19 12:30N 55°15' E 012°52'4 8.3
2017-Aug-19 12:00N 55°16' E 012°45'4 8.0
2017-Aug-19 11:30N 55°18' E 012°39'3 6.8
2017-Aug-19 11:00N 55°21' E 012°39'4 7.6
2017-Aug-19 10:30N 55°25' E 012°40'4 8.0
2017-Aug-19 10:00N 55°29' E 012°42'510.2
2017-Aug-19 09:30N 55°33' E 012°47'510.4
2017-Aug-19 09:00N 55°37' E 012°53'510.5
2017-Aug-19 08:30N 55°42' E 012°53'713.9
2017-Aug-19 08:00N 55°48' E 012°47'612.9
2017-Aug-19 07:30N 55°55' E 012°45'713.3
2017-Aug-19 07:00N 56°01' E 012°40'612.1
2017-Aug-19 06:30N 56°06' E 012°34'5 9.4
2017-Aug-19 06:00N 56°09' E 012°27'4 8.1
2017-Aug-19 05:30N 56°11' E 012°21'4 8.4
2017-Aug-19 05:00N 56°13' E 012°15'4 8.3
2017-Aug-19 04:30N 56°15' E 012°09'24 9.2
2017-Aug-19 01:51N 56°39' E 011°54'3 9.4
2017-Aug-19 01:29N 56°42' E 011°53'5 9.3
2017-Aug-19 00:59N 56°46' E 011°51'5 9.3
2017-Aug-19 00:28N 56°51' E 011°48'12 9.3
2017-Aug-18 23:11N 57°02' E 011°41'2 9.0
2017-Aug-18 22:57N 57°04' E 011°39'4 8.9
2017-Aug-18 22:30N 57°08' E 011°37'4 8.1
2017-Aug-18 21:58N 57°12' E 011°34'4 8.2
2017-Aug-18 21:30N 57°15' E 011°32'4 8.1
2017-Aug-18 21:00N 57°19' E 011°29'4 8.2
2017-Aug-18 20:30N 57°23' E 011°26'4 7.6
2017-Aug-18 20:00N 57°27' E 011°24'3 6.5
2017-Aug-18 19:30N 57°29' E 011°20'4 7.2
2017-Aug-18 18:59N 57°31' E 011°15'4 7.8
2017-Aug-18 18:30N 57°34' E 011°09'4 8.1
2017-Aug-18 18:00N 57°36' E 011°03'4 8.1
2017-Aug-18 17:30N 57°39' E 010°57'4 8.2
2017-Aug-18 17:00N 57°41' E 010°50'4 8.9
2017-Aug-18 16:30N 57°42' E 010°42'1 1.5
2017-Aug-18 15:59N 57°42' E 010°41'0 0.1
2017-Aug-18 15:14N 57°42' E 010°41'0 0.0
2017-Aug-18 14:29N 57°42' E 010°41'0 0.0
2017-Aug-18 10:23N 57°42' E 010°41'0 0.0
2017-Aug-18 08:56N 57°42' E 010°41'0 0.0
2017-Aug-18 08:29N 57°42' E 010°41'0 0.0
2017-Aug-18 07:14N 57°42' E 010°41'0 0.0
2017-Aug-18 06:44N 57°42' E 010°41'0 0.0
2017-Aug-18 05:41N 57°42' E 010°41'0 0.0
2017-Aug-18 05:20N 57°42' E 010°41'0 0.0
2017-Aug-18 04:44N 57°42' E 010°41'0 0.0
2017-Aug-18 04:14N 57°42' E 010°41'0 0.0
2017-Aug-18 03:59N 57°42' E 010°41'0 0.0
2017-Aug-18 03:29N 57°42' E 010°41'0 0.0
2017-Aug-18 02:44N 57°42' E 010°41'0 0.0
2017-Aug-18 02:29N 57°42' E 010°41'0 0.0
2017-Aug-18 01:56N 57°42' E 010°41'0 0.1
2017-Aug-18 00:41N 57°42' E 010°41'0 0.0
2017-Aug-18 00:23N 57°42' E 010°41'0 0.0
2017-Aug-17 23:53N 57°42' E 010°41'0 0.1
2017-Aug-17 23:08N 57°42' E 010°41'0 0.0
2017-Aug-17 22:02N 57°42' E 010°41'0 0.0
2017-Aug-17 21:53N 57°42' E 010°41'0 0.0
2017-Aug-17 21:26N 57°42' E 010°41'0 0.0
2017-Aug-17 20:02N 57°42' E 010°41'0 0.0
2017-Aug-17 19:53N 57°42' E 010°41'0 0.1
2017-Aug-17 19:29N 57°42' E 010°41'0 0.0
2017-Aug-17 18:50N 57°42' E 010°41'0 0.0
2017-Aug-17 17:53N 57°42' E 010°41'0 0.0
2017-Aug-17 16:38N 57°42' E 010°41'0 0.0
2017-Aug-17 15:32N 57°42' E 010°41'0 0.0
2017-Aug-17 14:17N 57°42' E 010°41'0 0.0
2017-Aug-17 12:38N 57°42' E 010°41'0 0.0
2017-Aug-17 12:17N 57°42' E 010°41'0 0.0
2017-Aug-17 11:56N 57°42' E 010°41'0 0.0
2017-Aug-17 10:53N 57°42' E 010°41'0 0.0
2017-Aug-17 10:14N 57°42' E 010°41'0 0.0
2017-Aug-17 08:53N 57°42' E 010°41'0 0.1
2017-Aug-17 08:20N 57°42' E 010°41'0 0.1
2017-Aug-17 07:56N 57°42' E 010°41'0 0.0
2017-Aug-17 07:11N 57°42' E 010°41'0 0.0
2017-Aug-17 06:56N 57°42' E 010°41'0 0.0
2017-Aug-17 06:29N 57°42' E 010°41'0 0.0
2017-Aug-17 05:59N 57°42' E 010°41'0 0.0
2017-Aug-17 05:29N 57°42' E 010°41'0 0.0
2017-Aug-17 04:59N 57°42' E 010°41'0 0.0
2017-Aug-17 04:29N 57°42' E 010°41'0 0.0
2017-Aug-17 03:59N 57°42' E 010°41'0 0.0
2017-Aug-17 03:29N 57°42' E 010°41'0 0.1
2017-Aug-17 00:41N 57°42' E 010°41'0 0.0
2017-Aug-17 00:29N 57°42' E 010°41'0 0.1
2017-Aug-16 23:47N 57°42' E 010°41'0 0.2
2017-Aug-16 23:17N 57°42' E 010°41'0 0.2
2017-Aug-16 22:56N 57°42' E 010°41'0 0.1
2017-Aug-16 22:23N 57°42' E 010°41'0 0.0
2017-Aug-16 21:59N 57°42' E 010°41'0 0.0
2017-Aug-16 20:35N 57°42' E 010°41'0 0.0
2017-Aug-16 20:26N 57°42' E 010°41'0 0.0
2017-Aug-16 19:47N 57°42' E 010°41'0 0.1
2017-Aug-16 19:29N 57°42' E 010°41'0 0.0
2017-Aug-16 18:56N 57°42' E 010°41'0 0.0
2017-Aug-16 18:29N 57°42' E 010°41'0 0.0
2017-Aug-16 17:59N 57°42' E 010°41'0 0.0
2017-Aug-16 17:29N 57°42' E 010°41'0 0.0
2017-Aug-16 16:59N 57°42' E 010°41'0 0.0
2017-Aug-16 16:29N 57°42' E 010°41'0 0.0
2017-Aug-16 15:59N 57°42' E 010°41'0 0.0
2017-Aug-16 15:29N 57°42' E 010°41'0 0.0
2017-Aug-16 14:35N 57°42' E 010°41'0 0.0
2017-Aug-16 14:08N 57°42' E 010°41'0 0.0
2017-Aug-16 13:59N 57°42' E 010°41'0 0.0
2017-Aug-16 13:23N 57°42' E 010°41'0 0.0
2017-Aug-16 12:47N 57°42' E 010°41'0 0.0
2017-Aug-16 12:20N 57°42' E 010°41'0 0.0
2017-Aug-16 11:56N 57°42' E 010°41'0 0.1
2017-Aug-16 11:20N 57°42' E 010°41'0 0.1
2017-Aug-16 10:56N 57°42' E 010°41'0 0.0
2017-Aug-16 10:23N 57°42' E 010°41'0 0.1
2017-Aug-16 09:59N 57°42' E 010°41'0 0.0
2017-Aug-16 09:23N 57°42' E 010°41'0 0.0
2017-Aug-16 08:56N 57°42' E 010°41'0 0.0
2017-Aug-16 08:23N 57°42' E 010°41'0 0.0
2017-Aug-16 07:50N 57°42' E 010°41'0 0.0
2017-Aug-16 07:29N 57°42' E 010°41'0 0.1
2017-Aug-16 06:50N 57°42' E 010°41'0 0.0
2017-Aug-16 06:29N 57°42' E 010°41'0 0.0
2017-Aug-16 05:26N 57°42' E 010°41'0 0.0
2017-Aug-16 04:32N 57°42' E 010°41'0 0.0
2017-Aug-16 04:29N 57°42' E 010°41'0 0.0
2017-Aug-16 03:56N 57°42' E 010°41'0 0.0
2017-Aug-16 03:11N 57°42' E 010°41'0 0.0
2017-Aug-16 02:59N 57°42' E 010°41'0 0.0
2017-Aug-16 02:29N 57°42' E 010°41'0 0.0
2017-Aug-16 01:56N 57°42' E 010°41'0 0.0
2017-Aug-16 01:17N 57°42' E 010°41'0 0.0
2017-Aug-16 00:50N 57°42' E 010°41'0 0.0
2017-Aug-16 00:08N 57°42' E 010°41'0 0.1
2017-Aug-15 23:56N 57°42' E 010°41'0 0.0
2017-Aug-15 22:56N 57°42' E 010°41'0 0.0
2017-Aug-15 22:23N 57°42' E 010°41'0 0.0
2017-Aug-15 20:32N 57°42' E 010°41'0 0.0
2017-Aug-15 20:29N 57°42' E 010°41'0 0.0
2017-Aug-15 19:59N 57°42' E 010°41'0 0.0
2017-Aug-15 19:29N 57°42' E 010°41'0 0.1
2017-Aug-15 18:53N 57°42' E 010°41'0 0.0
2017-Aug-15 18:23N 57°42' E 010°41'0 0.0
2017-Aug-15 17:47N 57°42' E 010°41'0 0.0
2017-Aug-15 17:23N 57°42' E 010°41'0 0.0
2017-Aug-15 16:59N 57°42' E 010°41'0 0.0
2017-Aug-15 14:11N 57°42' E 010°41'0 0.0
2017-Aug-15 13:20N 57°42' E 010°41'0 0.0
2017-Aug-15 12:38N 57°42' E 010°41'0 0.1
2017-Aug-15 12:17N 57°42' E 010°41'0 0.1
2017-Aug-15 11:59N 57°42' E 010°41'0 0.0
2017-Aug-15 11:29N 57°42' E 010°41'0 0.0
2017-Aug-15 10:59N 57°42' E 010°41'0 0.0
2017-Aug-15 08:23N 57°42' E 010°41'0 0.0
2017-Aug-15 06:56N 57°42' E 010°41'0 0.0
2017-Aug-15 06:26N 57°42' E 010°41'0 0.0
2017-Aug-15 05:53N 57°42' E 010°41'0 0.0
2017-Aug-15 05:23N 57°42' E 010°41'0 0.0
2017-Aug-15 04:56N 57°42' E 010°41'0 0.0
2017-Aug-15 04:26N 57°42' E 010°41'0 0.0
2017-Aug-15 03:17N 57°42' E 010°41'0 0.0
2017-Aug-15 02:50N 57°42' E 010°41'0 0.0
2017-Aug-15 02:20N 57°42' E 010°41'0 0.0
2017-Aug-15 01:41N 57°42' E 010°41'0 0.0
2017-Aug-15 01:17N 57°42' E 010°41'0 0.0
2017-Aug-15 00:53N 57°42' E 010°41'0 0.0
2017-Aug-15 00:26N 57°42' E 010°41'0 0.0
2017-Aug-14 23:50N 57°42' E 010°41'0 0.0
2017-Aug-14 23:17N 57°42' E 010°41'0 0.0
2017-Aug-14 22:59N 57°42' E 010°41'0 0.0
2017-Aug-14 22:23N 57°42' E 010°41'0 0.0
2017-Aug-14 21:44N 57°42' E 010°41'0 0.0
2017-Aug-14 21:29N 57°42' E 010°41'0 0.0
2017-Aug-14 20:02N 57°42' E 010°41'0 0.0
2017-Aug-14 19:50N 57°42' E 010°41'0 0.0
2017-Aug-14 18:29N 57°42' E 010°41'0 0.0
2017-Aug-14 17:53N 57°42' E 010°41'0 0.0
2017-Aug-14 17:17N 57°42' E 010°41'0 0.0
2017-Aug-14 16:50N 57°42' E 010°41'0 0.0
2017-Aug-14 16:29N 57°42' E 010°41'0 0.0
2017-Aug-14 15:44N 57°42' E 010°41'0 0.0
2017-Aug-14 14:38N 57°42' E 010°41'0 0.0
2017-Aug-14 14:23N 57°42' E 010°41'0 0.0
2017-Aug-14 13:50N 57°42' E 010°41'0 0.0
2017-Aug-14 13:08N 57°42' E 010°41'0 0.0
2017-Aug-14 12:38N 57°42' E 010°41'0 0.0
2017-Aug-14 12:29N 57°42' E 010°41'0 0.0
2017-Aug-14 11:53N 57°42' E 010°41'0 0.0
2017-Aug-14 11:29N 57°42' E 010°41'0 0.0
2017-Aug-14 10:20N 57°42' E 010°41'0 0.0
2017-Aug-14 09:44N 57°42' E 010°41'0 0.0
2017-Aug-14 09:17N 57°42' E 010°41'0 0.0
2017-Aug-14 08:59N 57°42' E 010°41'0 0.0
2017-Aug-14 08:17N 57°42' E 010°41'0 0.0
2017-Aug-14 07:53N 57°42' E 010°41'0 0.0
2017-Aug-14 07:29N 57°42' E 010°41'0 0.0
2017-Aug-14 06:59N 57°42' E 010°41'0 0.0
2017-Aug-14 06:29N 57°42' E 010°41'0 0.0
2017-Aug-14 05:38N 57°42' E 010°41'0 0.0
2017-Aug-14 05:11N 57°42' E 010°41'0 0.0
2017-Aug-14 04:47N 57°42' E 010°41'0 0.0
2017-Aug-14 04:29N 57°42' E 010°41'0 0.0
2017-Aug-14 03:53N 57°42' E 010°41'0 0.0
2017-Aug-14 03:29N 57°42' E 010°41'0 0.0
2017-Aug-14 02:53N 57°42' E 010°41'0 0.0
2017-Aug-14 02:23N 57°42' E 010°41'0 0.0
2017-Aug-14 01:35N 57°42' E 010°41'0 0.0
2017-Aug-14 01:26N 57°42' E 010°41'0 0.0
2017-Aug-14 00:59N 57°42' E 010°41'0 0.0
2017-Aug-14 00:29N 57°42' E 010°41'0 0.0
2017-Aug-13 23:50N 57°42' E 010°41'0 0.0
2017-Aug-13 23:29N 57°42' E 010°41'0 0.0
2017-Aug-13 22:59N 57°42' E 010°41'0 0.0
2017-Aug-13 22:29N 57°42' E 010°41'0 0.0
2017-Aug-13 21:50N 57°42' E 010°41'0 0.0
2017-Aug-13 21:20N 57°42' E 010°41'0 0.0
2017-Aug-13 20:50N 57°42' E 010°41'0 0.0
2017-Aug-13 20:23N 57°42' E 010°41'0 0.0
2017-Aug-13 19:59N 57°42' E 010°41'0 0.0
2017-Aug-13 19:29N 57°42' E 010°41'0 0.0
2017-Aug-13 18:59N 57°42' E 010°41'0 0.2
2017-Aug-13 18:30N 57°42' E 010°41'1 2.1
2017-Aug-13 18:00N 57°42' E 010°43'3 6.6
2017-Aug-13 17:29N 57°45' E 010°45'4 7.8
2017-Aug-13 17:00N 57°47' E 010°39'510.5
2017-Aug-13 16:30N 57°47' E 010°29'510.3
2017-Aug-13 16:00N 57°46' E 010°20'710.1
2017-Aug-13 15:17N 57°46' E 010°06'374 9.5
2017-Aug-11 23:54N 54°22' E 000°45'410.4
2017-Aug-11 23:30N 54°18' E 000°41'610.4
2017-Aug-11 22:56N 54°12' E 000°40'810.3
2017-Aug-11 22:09N 54°04' E 000°40'310.0
2017-Aug-11 21:53N 54°01' E 000°40'17 0.7
2017-Aug-10 23:31N 53°46' E 000°28'  
Track history (hours):
 
Tides and Currents Weather Stations Pressure Air Temp Water Temp Dewpoint Dewpoint Depression Visibility Wind Speed Wind Dir Waves Ship Positions

Pelagos

Last reported at 2017-Aug-20 06:22 UTC. Time now 2017-Aug-21 12:02 UTC.
Position N 55°49' E 016°57'.

Length 249 m; draft 6.5 m.

Type: Ship. MMSI: 240335000.

Date/timePositionNaut miles runAvg speedWind from/ knotsBaromVisibWave heightAir tempDewpointWater temp
2017-Aug-20 06:22N 55°49' E 016°57'3 8.3
2017-Aug-20 06:00N 55°48' E 016°52'4 8.0
2017-Aug-20 05:30N 55°47' E 016°45'4 7.9
2017-Aug-20 05:00N 55°46' E 016°38'4 8.0
2017-Aug-20 04:30N 55°45' E 016°32'4 8.1
2017-Aug-20 04:00N 55°44' E 016°25'4 8.2
2017-Aug-20 03:30N 55°43' E 016°17'4 8.3
2017-Aug-20 03:00N 55°42' E 016°10'4 8.4
2017-Aug-20 02:30N 55°41' E 016°03'4 8.4
2017-Aug-20 02:00N 55°41' E 015°56'4 8.4
2017-Aug-20 01:30N 55°39' E 015°49'4 8.4
2017-Aug-20 01:00N 55°38' E 015°42'4 8.5
2017-Aug-20 00:30N 55°37' E 015°34'4 8.5
2017-Aug-20 00:00N 55°36' E 015°27'4 8.6
2017-Aug-19 23:30N 55°34' E 015°20'4 8.6
2017-Aug-19 23:00N 55°32' E 015°13'4 8.5
2017-Aug-19 22:30N 55°31' E 015°06'4 8.4
2017-Aug-19 22:00N 55°29' E 014°60'4 8.3
2017-Aug-19 21:30N 55°27' E 014°53'4 8.4
2017-Aug-19 21:00N 55°26' E 014°46'4 8.5
2017-Aug-19 20:30N 55°24' E 014°39'4 8.3
2017-Aug-19 20:00N 55°21' E 014°35'4 8.3
2017-Aug-19 19:30N 55°17' E 014°30'4 8.4
2017-Aug-19 19:00N 55°14' E 014°25'4 8.4
2017-Aug-19 18:30N 55°11' E 014°20'4 8.2
2017-Aug-19 18:00N 55°10' E 014°13'4 8.7
2017-Aug-19 17:30N 55°10' E 014°06'4 8.6
2017-Aug-19 17:00N 55°10' E 013°58'4 8.6
2017-Aug-19 16:30N 55°10' E 013°51'15 8.5
2017-Aug-19 14:44N 55°12' E 013°24'8 8.2
2017-Aug-19 13:47N 55°13' E 013°11'2 8.2
2017-Aug-19 13:30N 55°14' E 013°07'4 8.5
2017-Aug-19 13:00N 55°14' E 012°59'4 8.4
2017-Aug-19 12:30N 55°15' E 012°52'4 8.3
2017-Aug-19 12:00N 55°16' E 012°45'4 8.0
2017-Aug-19 11:30N 55°18' E 012°39'3 6.8
2017-Aug-19 11:00N 55°21' E 012°39'4 7.6
2017-Aug-19 10:30N 55°25' E 012°40'4 8.0
2017-Aug-19 10:00N 55°29' E 012°42'510.2
2017-Aug-19 09:30N 55°33' E 012°47'510.4
2017-Aug-19 09:00N 55°37' E 012°53'510.5
2017-Aug-19 08:30N 55°42' E 012°53'713.9
2017-Aug-19 08:00N 55°48' E 012°47'612.9
2017-Aug-19 07:30N 55°55' E 012°45'713.3
2017-Aug-19 07:00N 56°01' E 012°40'612.1
2017-Aug-19 06:30N 56°06' E 012°34'5 9.4
2017-Aug-19 06:00N 56°09' E 012°27'4 8.1
2017-Aug-19 05:30N 56°11' E 012°21'4 8.4
2017-Aug-19 05:00N 56°13' E 012°15'4 8.3
2017-Aug-19 04:30N 56°15' E 012°09'24 9.2
2017-Aug-19 01:51N 56°39' E 011°54'3 9.4
2017-Aug-19 01:29N 56°42' E 011°53'5 9.3
2017-Aug-19 00:59N 56°46' E 011°51'5 9.3
2017-Aug-19 00:28N 56°51' E 011°48'12 9.3
2017-Aug-18 23:11N 57°02' E 011°41'2 9.0
2017-Aug-18 22:57N 57°04' E 011°39'4 8.9
2017-Aug-18 22:30N 57°08' E 011°37'4 8.1
2017-Aug-18 21:58N 57°12' E 011°34'4 8.2
2017-Aug-18 21:30N 57°15' E 011°32'4 8.1
2017-Aug-18 21:00N 57°19' E 011°29'4 8.2
2017-Aug-18 20:30N 57°23' E 011°26'4 7.6
2017-Aug-18 20:00N 57°27' E 011°24'3 6.5
2017-Aug-18 19:30N 57°29' E 011°20'4 7.2
2017-Aug-18 18:59N 57°31' E 011°15'4 7.8
2017-Aug-18 18:30N 57°34' E 011°09'4 8.1
2017-Aug-18 18:00N 57°36' E 011°03'4 8.1
2017-Aug-18 17:30N 57°39' E 010°57'4 8.2
2017-Aug-18 17:00N 57°41' E 010°50'4 8.9
2017-Aug-18 16:30N 57°42' E 010°42'1 1.5
2017-Aug-18 15:59N 57°42' E 010°41'0 0.1
2017-Aug-18 15:14N 57°42' E 010°41'0 0.0
2017-Aug-18 14:29N 57°42' E 010°41'0 0.0
2017-Aug-18 10:23N 57°42' E 010°41'0 0.0
2017-Aug-18 08:56N 57°42' E 010°41'0 0.0
2017-Aug-18 08:29N 57°42' E 010°41'0 0.0
2017-Aug-18 07:14N 57°42' E 010°41'0 0.0
2017-Aug-18 06:44N 57°42' E 010°41'0 0.0
2017-Aug-18 05:41N 57°42' E 010°41'0 0.0
2017-Aug-18 05:20N 57°42' E 010°41'0 0.0
2017-Aug-18 04:44N 57°42' E 010°41'0 0.0
2017-Aug-18 04:14N 57°42' E 010°41'0 0.0
2017-Aug-18 03:59N 57°42' E 010°41'0 0.0
2017-Aug-18 03:29N 57°42' E 010°41'0 0.0
2017-Aug-18 02:44N 57°42' E 010°41'0 0.0
2017-Aug-18 02:29N 57°42' E 010°41'0 0.0
2017-Aug-18 01:56N 57°42' E 010°41'0 0.1
2017-Aug-18 00:41N 57°42' E 010°41'0 0.0
2017-Aug-18 00:23N 57°42' E 010°41'0 0.0
2017-Aug-17 23:53N 57°42' E 010°41'0 0.1
2017-Aug-17 23:08N 57°42' E 010°41'0 0.0
2017-Aug-17 22:02N 57°42' E 010°41'0 0.0
2017-Aug-17 21:53N 57°42' E 010°41'0 0.0
2017-Aug-17 21:26N 57°42' E 010°41'0 0.0
2017-Aug-17 20:02N 57°42' E 010°41'0 0.0
2017-Aug-17 19:53N 57°42' E 010°41'0 0.1
2017-Aug-17 19:29N 57°42' E 010°41'0 0.0
2017-Aug-17 18:50N 57°42' E 010°41'0 0.0
2017-Aug-17 17:53N 57°42' E 010°41'0 0.0
2017-Aug-17 16:38N 57°42' E 010°41'0 0.0
2017-Aug-17 15:32N 57°42' E 010°41'0 0.0
2017-Aug-17 14:17N 57°42' E 010°41'0 0.0
2017-Aug-17 12:38N 57°42' E 010°41'0 0.0
2017-Aug-17 12:17N 57°42' E 010°41'0 0.0
2017-Aug-17 11:56N 57°42' E 010°41'0 0.0
2017-Aug-17 10:53N 57°42' E 010°41'0 0.0
2017-Aug-17 10:14N 57°42' E 010°41'0 0.0
2017-Aug-17 08:53N 57°42' E 010°41'0 0.1
2017-Aug-17 08:20N 57°42' E 010°41'0 0.1
2017-Aug-17 07:56N 57°42' E 010°41'0 0.0
2017-Aug-17 07:11N 57°42' E 010°41'0 0.0
2017-Aug-17 06:56N 57°42' E 010°41'0 0.0
2017-Aug-17 06:29N 57°42' E 010°41'0 0.0
2017-Aug-17 05:59N 57°42' E 010°41'0 0.0
2017-Aug-17 05:29N 57°42' E 010°41'0 0.0
2017-Aug-17 04:59N 57°42' E 010°41'0 0.0
2017-Aug-17 04:29N 57°42' E 010°41'0 0.0
2017-Aug-17 03:59N 57°42' E 010°41'0 0.0
2017-Aug-17 03:29N 57°42' E 010°41'0 0.1
2017-Aug-17 00:41N 57°42' E 010°41'0 0.0
2017-Aug-17 00:29N 57°42' E 010°41'0 0.1
2017-Aug-16 23:47N 57°42' E 010°41'0 0.2
2017-Aug-16 23:17N 57°42' E 010°41'0 0.2
2017-Aug-16 22:56N 57°42' E 010°41'0 0.1
2017-Aug-16 22:23N 57°42' E 010°41'0 0.0
2017-Aug-16 21:59N 57°42' E 010°41'0 0.0
2017-Aug-16 20:35N 57°42' E 010°41'0 0.0
2017-Aug-16 20:26N 57°42' E 010°41'0 0.0
2017-Aug-16 19:47N 57°42' E 010°41'0 0.1
2017-Aug-16 19:29N 57°42' E 010°41'0 0.0
2017-Aug-16 18:56N 57°42' E 010°41'0 0.0
2017-Aug-16 18:29N 57°42' E 010°41'0 0.0
2017-Aug-16 17:59N 57°42' E 010°41'0 0.0
2017-Aug-16 17:29N 57°42' E 010°41'0 0.0
2017-Aug-16 16:59N 57°42' E 010°41'0 0.0
2017-Aug-16 16:29N 57°42' E 010°41'0 0.0
2017-Aug-16 15:59N 57°42' E 010°41'0 0.0
2017-Aug-16 15:29N 57°42' E 010°41'0 0.0
2017-Aug-16 14:35N 57°42' E 010°41'0 0.0
2017-Aug-16 14:08N 57°42' E 010°41'0 0.0
2017-Aug-16 13:59N 57°42' E 010°41'0 0.0
2017-Aug-16 13:23N 57°42' E 010°41'0 0.0
2017-Aug-16 12:47N 57°42' E 010°41'0 0.0
2017-Aug-16 12:20N 57°42' E 010°41'0 0.0
2017-Aug-16 11:56N 57°42' E 010°41'0 0.1
2017-Aug-16 11:20N 57°42' E 010°41'0 0.1
2017-Aug-16 10:56N 57°42' E 010°41'0 0.0
2017-Aug-16 10:23N 57°42' E 010°41'0 0.1
2017-Aug-16 09:59N 57°42' E 010°41'0 0.0
2017-Aug-16 09:23N 57°42' E 010°41'0 0.0
2017-Aug-16 08:56N 57°42' E 010°41'0 0.0
2017-Aug-16 08:23N 57°42' E 010°41'0 0.0
2017-Aug-16 07:50N 57°42' E 010°41'0 0.0
2017-Aug-16 07:29N 57°42' E 010°41'0 0.1
2017-Aug-16 06:50N 57°42' E 010°41'0 0.0
2017-Aug-16 06:29N 57°42' E 010°41'0 0.0
2017-Aug-16 05:26N 57°42' E 010°41'0 0.0
2017-Aug-16 04:32N 57°42' E 010°41'0 0.0
2017-Aug-16 04:29N 57°42' E 010°41'0 0.0
2017-Aug-16 03:56N 57°42' E 010°41'0 0.0
2017-Aug-16 03:11N 57°42' E 010°41'0 0.0
2017-Aug-16 02:59N 57°42' E 010°41'0 0.0
2017-Aug-16 02:29N 57°42' E 010°41'0 0.0
2017-Aug-16 01:56N 57°42' E 010°41'0 0.0
2017-Aug-16 01:17N 57°42' E 010°41'0 0.0
2017-Aug-16 00:50N 57°42' E 010°41'0 0.0
2017-Aug-16 00:08N 57°42' E 010°41'0 0.1
2017-Aug-15 23:56N 57°42' E 010°41'0 0.0
2017-Aug-15 22:56N 57°42' E 010°41'0 0.0
2017-Aug-15 22:23N 57°42' E 010°41'0 0.0
2017-Aug-15 20:32N 57°42' E 010°41'0 0.0
2017-Aug-15 20:29N 57°42' E 010°41'0 0.0
2017-Aug-15 19:59N 57°42' E 010°41'0 0.0
2017-Aug-15 19:29N 57°42' E 010°41'0 0.1
2017-Aug-15 18:53N 57°42' E 010°41'0 0.0
2017-Aug-15 18:23N 57°42' E 010°41'0 0.0
2017-Aug-15 17:47N 57°42' E 010°41'0 0.0
2017-Aug-15 17:23N 57°42' E 010°41'0 0.0
2017-Aug-15 16:59N 57°42' E 010°41'0 0.0
2017-Aug-15 14:11N 57°42' E 010°41'0 0.0
2017-Aug-15 13:20N 57°42' E 010°41'0 0.0
2017-Aug-15 12:38N 57°42' E 010°41'0 0.1
2017-Aug-15 12:17N 57°42' E 010°41'0 0.1
2017-Aug-15 11:59N 57°42' E 010°41'0 0.0
2017-Aug-15 11:29N 57°42' E 010°41'0 0.0
2017-Aug-15 10:59N 57°42' E 010°41'0 0.0
2017-Aug-15 08:23N 57°42' E 010°41'0 0.0
2017-Aug-15 06:56N 57°42' E 010°41'0 0.0
2017-Aug-15 06:26N 57°42' E 010°41'0 0.0
2017-Aug-15 05:53N 57°42' E 010°41'0 0.0
2017-Aug-15 05:23N 57°42' E 010°41'0 0.0
2017-Aug-15 04:56N 57°42' E 010°41'0 0.0
2017-Aug-15 04:26N 57°42' E 010°41'0 0.0
2017-Aug-15 03:17N 57°42' E 010°41'0 0.0
2017-Aug-15 02:50N 57°42' E 010°41'0 0.0
2017-Aug-15 02:20N 57°42' E 010°41'0 0.0
2017-Aug-15 01:41N 57°42' E 010°41'0 0.0
2017-Aug-15 01:17N 57°42' E 010°41'0 0.0
2017-Aug-15 00:53N 57°42' E 010°41'0 0.0
2017-Aug-15 00:26N 57°42' E 010°41'0 0.0
2017-Aug-14 23:50N 57°42' E 010°41'0 0.0
2017-Aug-14 23:17N 57°42' E 010°41'0 0.0
2017-Aug-14 22:59N 57°42' E 010°41'0 0.0
2017-Aug-14 22:23N 57°42' E 010°41'0 0.0
2017-Aug-14 21:44N 57°42' E 010°41'0 0.0
2017-Aug-14 21:29N 57°42' E 010°41'0 0.0
2017-Aug-14 20:02N 57°42' E 010°41'0 0.0
2017-Aug-14 19:50N 57°42' E 010°41'0 0.0
2017-Aug-14 18:29N 57°42' E 010°41'0 0.0
2017-Aug-14 17:53N 57°42' E 010°41'0 0.0
2017-Aug-14 17:17N 57°42' E 010°41'0 0.0
2017-Aug-14 16:50N 57°42' E 010°41'0 0.0
2017-Aug-14 16:29N 57°42' E 010°41'0 0.0
2017-Aug-14 15:44N 57°42' E 010°41'0 0.0
2017-Aug-14 14:38N 57°42' E 010°41'0 0.0
2017-Aug-14 14:23N 57°42' E 010°41'0 0.0
2017-Aug-14 13:50N 57°42' E 010°41'0 0.0
2017-Aug-14 13:08N 57°42' E 010°41'0 0.0
2017-Aug-14 12:38N 57°42' E 010°41'0 0.0
2017-Aug-14 12:29N 57°42' E 010°41'0 0.0
2017-Aug-14 11:53N 57°42' E 010°41'0 0.0
2017-Aug-14 11:29N 57°42' E 010°41'0 0.0
2017-Aug-14 10:20N 57°42' E 010°41'0 0.0
2017-Aug-14 09:44N 57°42' E 010°41'0 0.0
2017-Aug-14 09:17N 57°42' E 010°41'0 0.0
2017-Aug-14 08:59N 57°42' E 010°41'0 0.0
2017-Aug-14 08:17N 57°42' E 010°41'0 0.0
2017-Aug-14 07:53N 57°42' E 010°41'0 0.0
2017-Aug-14 07:29N 57°42' E 010°41'0 0.0
2017-Aug-14 06:59N 57°42' E 010°41'0 0.0
2017-Aug-14 06:29N 57°42' E 010°41'0 0.0
2017-Aug-14 05:38N 57°42' E 010°41'0 0.0
2017-Aug-14 05:11N 57°42' E 010°41'0 0.0
2017-Aug-14 04:47N 57°42' E 010°41'0 0.0
2017-Aug-14 04:29N 57°42' E 010°41'0 0.0
2017-Aug-14 03:53N 57°42' E 010°41'0 0.0
2017-Aug-14 03:29N 57°42' E 010°41'0 0.0
2017-Aug-14 02:53N 57°42' E 010°41'0 0.0
2017-Aug-14 02:23N 57°42' E 010°41'0 0.0
2017-Aug-14 01:35N 57°42' E 010°41'0 0.0
2017-Aug-14 01:26N 57°42' E 010°41'0 0.0
2017-Aug-14 00:59N 57°42' E 010°41'0 0.0
2017-Aug-14 00:29N 57°42' E 010°41'0 0.0
2017-Aug-13 23:50N 57°42' E 010°41'0 0.0
2017-Aug-13 23:29N 57°42' E 010°41'0 0.0
2017-Aug-13 22:59N 57°42' E 010°41'0 0.0
2017-Aug-13 22:29N 57°42' E 010°41'0 0.0
2017-Aug-13 21:50N 57°42' E 010°41'0 0.0
2017-Aug-13 21:20N 57°42' E 010°41'0 0.0
2017-Aug-13 20:50N 57°42' E 010°41'0 0.0
2017-Aug-13 20:23N 57°42' E 010°41'0 0.0
2017-Aug-13 19:59N 57°42' E 010°41'0 0.0
2017-Aug-13 19:29N 57°42' E 010°41'0 0.0
2017-Aug-13 18:59N 57°42' E 010°41'0 0.2
2017-Aug-13 18:30N 57°42' E 010°41'1 2.1
2017-Aug-13 18:00N 57°42' E 010°43'3 6.6
2017-Aug-13 17:29N 57°45' E 010°45'4 7.8
2017-Aug-13 17:00N 57°47' E 010°39'510.5
2017-Aug-13 16:30N 57°47' E 010°29'510.3
2017-Aug-13 16:00N 57°46' E 010°20'710.1
2017-Aug-13 15:17N 57°46' E 010°06'374 9.5
2017-Aug-11 23:54N 54°22' E 000°45'410.4
2017-Aug-11 23:30N 54°18' E 000°41'610.4
2017-Aug-11 22:56N 54°12' E 000°40'810.3
2017-Aug-11 22:09N 54°04' E 000°40'310.0
2017-Aug-11 21:53N 54°01' E 000°40'17 0.7
2017-Aug-10 23:31N 53°46' E 000°28'  

Dump ship's entire track history